TAF Flughafenprognosen

Nürnberg TAF, ausgegeben Fr 04.12. 18:00

TAF EDDN 041700Z 0418/0518 10007KT CAVOK BECMG 0506/0508 20004KT TEMPO 0507/0514 BKN008
GültigkeitVonBisWind in Beaufort
(Knoten)
Wolken
(Meter über Grund)
Sichtweite
(Meter)
Wettererscheinung
Grundvorhersage Fr 04.12. 19:00 Sa 05.12. 19:00 O 3 (7) Nicht signifikant >= 10000  
Übergang zu Sa 05.12. 07:00 Sa 05.12. 09:00 SSW 2 (4)      
Vorübergehend Sa 05.12. 08:00 Sa 05.12. 15:00   Stark bewölkt (240)    

 

Hof TAF, ausgegeben Fr 04.12. 18:00

TAF EDQM 041700Z 0418/0503 14008KT CAVOK PROB30 TEMPO 0418/0424 4000 BR BKN004
GültigkeitVonBisWind in Beaufort
(Knoten)
Wolken
(Meter über Grund)
Sichtweite
(Meter)
Wettererscheinung
Grundvorhersage Fr 04.12. 19:00 Sa 05.12. 04:00 SO 3 (8) Nicht signifikant >= 10000  
Vorübergehend
(Wahrscheinlichkeit 30 %)
Fr 04.12. 19:00 Sa 05.12. 01:00   Stark bewölkt (120) 4000 Nebeldunst

 

Erfurt-Bindersleben TAF, ausgegeben Fr 04.12. 18:00

TAF EDDE 041700Z 0418/0518 05003KT CAVOK PROB30 TEMPO 0502/0508 4000 BR BKN012
GültigkeitVonBisWind in Beaufort
(Knoten)
Wolken
(Meter über Grund)
Sichtweite
(Meter)
Wettererscheinung
Grundvorhersage Fr 04.12. 19:00 Sa 05.12. 19:00 NO 2 (3) Nicht signifikant >= 10000  
Vorübergehend
(Wahrscheinlichkeit 30 %)
Sa 05.12. 03:00 Sa 05.12. 09:00   Stark bewölkt (370) 4000 Nebeldunst

 

Augsburg TAF, ausgegeben Fr 04.12. 18:00

TAF EDMA 041700Z 0418/0503 VRB03KT CAVOK BECMG 0500/0503 26008KT
GültigkeitVonBisWind in Beaufort
(Knoten)
Wolken
(Meter über Grund)
Sichtweite
(Meter)
Wettererscheinung
Grundvorhersage Fr 04.12. 19:00 Sa 05.12. 04:00 Uml 2 (3) Nicht signifikant >= 10000  
Übergang zu Sa 05.12. 01:00 Sa 05.12. 04:00 W 3 (8)      

 

Frankfurt TAF, ausgegeben Fr 04.12. 18:00

TAF EDDF 041700Z 0418/0524 04004KT 9999 BKN030 TEMPO 0418/0422 SCT030 PROB40 TEMPO 0423/0505 4000 RA BR BKN008 BECMG 0500/0502 BKN012 PROB30 TEMPO 0502/0504 2000 -SNRA TEMPO 0502/0507 2000 BCFG BKN003 BECMG 0503/0505 20005KT BECMG 0507/0510 SCT008 BKN025 BECMG 0512/0514 09004KT TEMPO 0516/0522 SCT025
GültigkeitVonBisWind in Beaufort
(Knoten)
Wolken
(Meter über Grund)
Sichtweite
(Meter)
Wettererscheinung
Grundvorhersage Fr 04.12. 19:00 So 06.12. 01:00 NO 2 (4) Stark bewölkt (910) >= 10000  
Vorübergehend Fr 04.12. 19:00 Fr 04.12. 23:00   Wolkig (910)    
Vorübergehend
(Wahrscheinlichkeit 40 %)
Sa 05.12. 00:00 Sa 05.12. 06:00   Stark bewölkt (240) 4000 Regen
Nebeldunst
Übergang zu Sa 05.12. 01:00 Sa 05.12. 03:00   Stark bewölkt (370)    
Vorübergehend
(Wahrscheinlichkeit 30 %)
Sa 05.12. 03:00 Sa 05.12. 05:00     2000 Schnee/Regen (schwach)
Vorübergehend Sa 05.12. 03:00 Sa 05.12. 08:00   Stark bewölkt (91) 2000 Nebel-Bänke
Übergang zu Sa 05.12. 04:00 Sa 05.12. 06:00 SSW 2 (5)      
Übergang zu Sa 05.12. 08:00 Sa 05.12. 11:00   Stark bewölkt (760)
Wolkig (240)
   
Übergang zu Sa 05.12. 13:00 Sa 05.12. 15:00 O 2 (4)      
Vorübergehend Sa 05.12. 17:00 Sa 05.12. 23:00   Wolkig (760)    

 

Stuttgart TAF, ausgegeben Fr 04.12. 18:00

TAF EDDS 041700Z 0418/0518 VRB03KT 9999 FEW020 TEMPO 0421/0424 BKN014 PROB40 TEMPO 0422/0504 4000 RASN BKN008 PROB30 TEMPO 0501/0504 2000 SN BKN003 TEMPO 0504/0510 2500 BR BKN003 TEMPO 0511/0518 09005KT
GültigkeitVonBisWind in Beaufort
(Knoten)
Wolken
(Meter über Grund)
Sichtweite
(Meter)
Wettererscheinung
Grundvorhersage Fr 04.12. 19:00 Sa 05.12. 19:00 Uml 2 (3) Leicht bewölkt (610) >= 10000  
Vorübergehend Fr 04.12. 22:00 Sa 05.12. 01:00   Stark bewölkt (430)    
Vorübergehend
(Wahrscheinlichkeit 40 %)
Fr 04.12. 23:00 Sa 05.12. 05:00   Stark bewölkt (240) 4000 Regen/Schneefall
Vorübergehend
(Wahrscheinlichkeit 30 %)
Sa 05.12. 02:00 Sa 05.12. 05:00   Stark bewölkt (91) 2000 Schneefall
Vorübergehend Sa 05.12. 05:00 Sa 05.12. 11:00   Stark bewölkt (91) 2500 Nebeldunst
Vorübergehend Sa 05.12. 12:00 Sa 05.12. 19:00 O 2 (5)      

 

München TAF, ausgegeben Fr 04.12. 18:00

TAF EDDM 041700Z 0418/0524 10008KT CAVOK BECMG 0500/0502 25006KT BECMG 0509/0511 02004KT PROB30 TEMPO 0509/0514 3500 -RASN BKN008 PROB30 TEMPO 0516/0524 0300 FZFG OVC001
GültigkeitVonBisWind in Beaufort
(Knoten)
Wolken
(Meter über Grund)
Sichtweite
(Meter)
Wettererscheinung
Grundvorhersage Fr 04.12. 19:00 So 06.12. 01:00 O 3 (8) Nicht signifikant >= 10000  
Übergang zu Sa 05.12. 01:00 Sa 05.12. 03:00 WSW 2 (6)      
Übergang zu Sa 05.12. 10:00 Sa 05.12. 12:00 NNO 2 (4)      
Vorübergehend
(Wahrscheinlichkeit 30 %)
Sa 05.12. 10:00 Sa 05.12. 15:00   Stark bewölkt (240) 3500 Regen/Schneefall (schwach)
Vorübergehend
(Wahrscheinlichkeit 30 %)
Sa 05.12. 17:00 So 06.12. 01:00   Bedeckt (30) 300 Nebel